createdAt,value
2018-03-25T00:01:50.950Z,91.30
2018-03-25T00:04:18.409Z,91.60
2018-03-25T00:06:45.887Z,91.40
2018-03-25T00:09:13.347Z,91.30
2018-03-25T00:11:40.810Z,91.60
2018-03-25T00:14:08.275Z,91.50
2018-03-25T00:16:35.729Z,92.00
2018-03-25T00:19:03.189Z,91.40
2018-03-25T00:21:30.664Z,91.40
2018-03-25T00:23:58.117Z,91.60
2018-03-25T00:26:25.606Z,92.10
2018-03-25T00:28:53.078Z,92.40
2018-03-25T00:31:20.543Z,92.50
2018-03-25T00:33:48.009Z,92.80
2018-03-25T00:36:15.474Z,92.80
2018-03-25T00:38:42.943Z,92.80
2018-03-25T00:41:10.399Z,93.00
2018-03-25T00:43:37.877Z,92.60
2018-03-25T00:46:06.095Z,92.20
2018-03-25T00:48:33.555Z,92.20
2018-03-25T00:51:01.051Z,92.50
2018-03-25T00:53:28.515Z,92.70
2018-03-25T00:55:55.976Z,93.00
2018-03-25T00:58:23.438Z,93.30
2018-03-25T01:00:50.913Z,93.30
2018-03-25T01:03:18.405Z,93.30
2018-03-25T01:05:46.640Z,93.20
2018-03-25T01:08:14.093Z,93.20
2018-03-25T01:10:41.554Z,93.30
2018-03-25T01:13:09.025Z,93.10
2018-03-25T01:15:48.189Z,93.00
2018-03-25T01:18:16.465Z,93.20
2018-03-25T01:20:44.689Z,93.20
2018-03-25T01:23:12.149Z,93.10
2018-03-25T01:25:39.604Z,93.20
2018-03-25T01:28:07.065Z,93.60
2018-03-25T01:30:34.553Z,93.60
2018-03-25T01:33:02.032Z,93.70
2018-03-25T01:35:29.485Z,93.70
2018-03-25T01:37:56.982Z,93.40
2018-03-25T01:40:25.240Z,92.80
2018-03-25T01:42:52.695Z,92.80
2018-03-25T01:45:20.173Z,92.80
2018-03-25T01:47:47.633Z,93.20
2018-03-25T01:50:15.099Z,93.70
2018-03-25T01:52:43.531Z,93.90
2018-03-25T01:55:11.014Z,93.80
2018-03-25T01:57:38.458Z,94.00
2018-03-25T02:00:05.924Z,94.20
2018-03-25T02:02:33.399Z,94.00
2018-03-25T02:05:00.846Z,94.00
2018-03-25T02:07:28.304Z,93.90
2018-03-25T02:09:55.774Z,94.10
2018-03-25T02:12:23.248Z,93.70
2018-03-25T02:14:50.706Z,93.50
2018-03-25T02:17:18.161Z,93.60
2018-03-25T02:19:45.618Z,93.80
2018-03-25T02:22:13.072Z,93.90
2018-03-25T02:24:40.544Z,93.80
2018-03-25T02:27:07.998Z,93.90
2018-03-25T02:29:35.469Z,93.60
2018-03-25T02:32:02.943Z,93.20
2018-03-25T02:34:30.437Z,93.30
2018-03-25T02:36:57.902Z,93.30
2018-03-25T02:39:25.376Z,93.30
2018-03-25T02:41:52.812Z,93.50
2018-03-25T02:44:20.294Z,93.70
2018-03-25T02:46:48.526Z,93.90
2018-03-25T02:49:15.987Z,93.80
2018-03-25T02:51:43.446Z,93.80
2018-03-25T02:54:10.911Z,93.90
2018-03-25T02:56:38.407Z,94.00
2018-03-25T02:59:05.859Z,94.00
2018-03-25T03:01:33.321Z,94.10
2018-03-25T03:04:00.852Z,94.20
2018-03-25T03:06:28.245Z,94.30
2018-03-25T03:08:55.708Z,94.50
2018-03-25T03:11:23.178Z,94.20
2018-03-25T03:13:50.623Z,94.40
2018-03-25T03:16:18.091Z,94.30
2018-03-25T03:18:45.552Z,94.20
2018-03-25T03:21:13.022Z,94.00
2018-03-25T03:23:40.476Z,94.10
2018-03-25T03:26:07.996Z,93.90
2018-03-25T03:28:35.409Z,93.30
2018-03-25T03:31:02.881Z,93.10
2018-03-25T03:33:30.343Z,93.00
2018-03-25T03:35:57.821Z,92.90
2018-03-25T03:38:26.054Z,93.20
2018-03-25T03:40:53.518Z,93.20
2018-03-25T03:43:20.999Z,93.10
2018-03-25T03:45:48.468Z,93.20
2018-03-25T03:48:15.928Z,92.90
2018-03-25T03:50:43.382Z,92.60
2018-03-25T03:53:10.882Z,92.60
2018-03-25T03:55:39.104Z,92.70
2018-03-25T03:58:06.569Z,92.70
2018-03-25T04:00:34.035Z,92.70
2018-03-25T04:03:01.510Z,92.40
2018-03-25T04:05:28.976Z,92.40
2018-03-25T04:07:56.432Z,92.50
2018-03-25T04:10:23.881Z,92.40
2018-03-25T04:12:51.349Z,92.50
2018-03-25T04:15:18.813Z,92.20
2018-03-25T04:17:46.286Z,92.20
2018-03-25T04:20:13.749Z,92.20
2018-03-25T04:22:41.229Z,92.10
2018-03-25T04:25:08.687Z,92.20
2018-03-25T04:27:36.145Z,92.30
2018-03-25T04:30:03.610Z,92.30
2018-03-25T04:32:31.071Z,92.20
2018-03-25T04:34:58.527Z,92.20
2018-03-25T04:37:25.990Z,92.30
2018-03-25T04:39:53.449Z,92.20
2018-03-25T04:42:20.922Z,92.20
2018-03-25T04:44:48.403Z,92.30
2018-03-25T04:47:16.652Z,92.20
2018-03-25T04:49:44.110Z,92.20
2018-03-25T04:52:11.565Z,92.40
2018-03-25T04:54:39.025Z,92.80
2018-03-25T04:57:06.493Z,92.60
2018-03-25T04:59:33.965Z,93.10
2018-03-25T05:02:01.427Z,93.40
2018-03-25T05:04:28.892Z,93.80
2018-03-25T05:06:56.342Z,93.80
2018-03-25T05:09:23.808Z,93.90
2018-03-25T05:11:51.285Z,93.90
2018-03-25T05:14:18.745Z,93.80
2018-03-25T05:16:46.214Z,93.90
2018-03-25T05:19:13.677Z,93.50
2018-03-25T05:21:41.128Z,93.40
2018-03-25T05:24:08.609Z,93.60
2018-03-25T05:26:36.066Z,93.50
2018-03-25T05:29:03.530Z,93.90
2018-03-25T05:31:30.997Z,93.90
2018-03-25T05:33:58.462Z,94.40
2018-03-25T05:36:25.933Z,94.50
2018-03-25T05:38:54.164Z,94.40
2018-03-25T05:41:21.630Z,94.40
2018-03-25T05:43:49.119Z,94.40
2018-03-25T05:46:16.571Z,94.50
2018-03-25T05:48:44.040Z,94.10
2018-03-25T05:51:11.500Z,93.60
2018-03-25T05:53:39.007Z,93.20
2018-03-25T05:56:06.460Z,93.20
2018-03-25T05:58:34.693Z,93.90
2018-03-25T06:01:02.159Z,93.90
2018-03-25T06:03:29.629Z,94.30
2018-03-25T06:05:57.086Z,94.40
2018-03-25T06:08:24.538Z,94.80
2018-03-25T06:10:52.011Z,94.90
2018-03-25T06:13:19.471Z,95.10
2018-03-25T06:15:46.951Z,95.20
2018-03-25T06:18:14.414Z,95.10
2018-03-25T06:20:41.870Z,95.00
2018-03-25T06:23:09.328Z,94.90
2018-03-25T06:25:36.795Z,95.00
2018-03-25T06:28:04.255Z,95.10
2018-03-25T06:30:31.771Z,95.20
2018-03-25T06:32:59.238Z,95.00
2018-03-25T06:35:26.732Z,95.20
2018-03-25T06:37:54.193Z,95.10
2018-03-25T06:40:21.671Z,94.50
2018-03-25T06:42:49.125Z,94.70
2018-03-25T06:45:16.599Z,95.00
2018-03-25T06:47:44.053Z,94.50
2018-03-25T06:50:11.523Z,94.10
2018-03-25T06:52:38.974Z,94.10
2018-03-25T06:55:06.433Z,93.70
2018-03-25T06:57:33.893Z,93.40
2018-03-25T07:00:01.363Z,93.20
2018-03-25T07:02:28.831Z,93.50
2018-03-25T07:04:56.286Z,93.20
2018-03-25T07:07:23.753Z,93.10
2018-03-25T07:09:51.227Z,93.10
2018-03-25T07:12:18.691Z,93.00
2018-03-25T07:14:46.147Z,93.70
2018-03-25T07:17:13.625Z,93.30
2018-03-25T07:19:41.863Z,93.30
2018-03-25T07:22:09.322Z,93.00
2018-03-25T07:24:36.809Z,93.00
2018-03-25T07:27:04.281Z,93.20
2018-03-25T07:29:31.725Z,93.40
2018-03-25T07:31:59.211Z,93.40
2018-03-25T07:34:26.698Z,93.50
2018-03-25T07:36:54.183Z,93.40
2018-03-25T07:39:21.649Z,93.30
2018-03-25T07:41:49.102Z,93.30
2018-03-25T07:44:16.565Z,93.70
2018-03-25T07:46:44.032Z,93.20
2018-03-25T07:49:11.496Z,92.90
2018-03-25T07:51:38.973Z,92.90
2018-03-25T07:54:06.438Z,92.80
2018-03-25T07:56:33.901Z,92.80
2018-03-25T07:59:01.362Z,92.90
2018-03-25T08:01:28.830Z,93.10
2018-03-25T08:03:56.348Z,93.10
2018-03-25T08:06:23.765Z,93.10
2018-03-25T08:08:51.217Z,93.20
2018-03-25T08:11:18.696Z,92.90
2018-03-25T08:13:46.162Z,93.20
2018-03-25T08:16:13.653Z,93.30
2018-03-25T08:18:41.061Z,93.20
2018-03-25T08:21:08.538Z,93.30
2018-03-25T08:23:35.993Z,93.20
2018-03-25T08:26:03.450Z,93.40
2018-03-25T08:28:30.910Z,93.10
2018-03-25T08:30:58.373Z,93.00
2018-03-25T08:33:25.849Z,93.00
2018-03-25T08:35:53.316Z,93.00
2018-03-25T08:38:20.781Z,93.20
2018-03-25T08:40:48.241Z,93.10
2018-03-25T08:43:15.702Z,92.70
2018-03-25T08:45:43.164Z,92.70
2018-03-25T08:48:10.633Z,92.60
2018-03-25T08:50:38.080Z,92.50
2018-03-25T08:53:05.543Z,92.40
2018-03-25T08:55:33.010Z,92.40
2018-03-25T08:58:00.477Z,92.40
2018-03-25T09:00:27.921Z,92.40
2018-03-25T09:02:57.311Z,92.10
2018-03-25T09:05:24.773Z,91.90
2018-03-25T09:07:52.234Z,92.10
2018-03-25T09:10:19.689Z,91.80
2018-03-25T09:12:47.158Z,92.00
2018-03-25T09:15:15.400Z,91.90
2018-03-25T09:17:42.854Z,91.90
2018-03-25T09:20:10.306Z,91.70
2018-03-25T09:22:37.779Z,91.10
2018-03-25T09:25:05.246Z,90.90
2018-03-25T09:27:32.733Z,91.10
2018-03-25T09:30:00.193Z,91.00
2018-03-25T09:32:28.427Z,90.30
2018-03-25T09:34:55.922Z,90.30
2018-03-25T09:37:24.156Z,89.10
2018-03-25T09:39:51.628Z,89.10
2018-03-25T09:42:19.089Z,88.50
2018-03-25T09:44:46.566Z,88.10
2018-03-25T09:47:14.042Z,88.60
2018-03-25T09:49:42.284Z,87.60
2018-03-25T09:52:09.763Z,87.60
2018-03-25T09:54:37.231Z,87.50
2018-03-25T09:57:04.692Z,84.80
2018-03-25T09:59:32.180Z,85.60
2018-03-25T10:02:04.217Z,85.50
2018-03-25T10:04:31.700Z,85.50
2018-03-25T10:06:59.157Z,86.50
2018-03-25T10:09:26.627Z,87.80
2018-03-25T10:11:54.085Z,87.30
2018-03-25T10:14:21.546Z,88.20
2018-03-25T10:16:49.017Z,87.80
2018-03-25T10:19:16.506Z,86.10
2018-03-25T10:21:43.962Z,85.80
2018-03-25T10:24:12.191Z,85.70
2018-03-25T10:26:40.514Z,85.80
2018-03-25T10:29:08.769Z,85.80
2018-03-25T10:31:36.248Z,85.80
2018-03-25T10:34:03.723Z,84.60
2018-03-25T10:36:31.955Z,84.30
2018-03-25T10:38:59.417Z,84.20
2018-03-25T10:41:26.886Z,82.90
2018-03-25T10:43:54.358Z,84.20
2018-03-25T10:46:21.844Z,84.70
2018-03-25T10:48:50.066Z,81.40
2018-03-25T10:51:17.528Z,81.00
2018-03-25T10:53:44.998Z,79.40
2018-03-25T10:56:12.461Z,77.40
2018-03-25T10:58:39.922Z,80.20
2018-03-25T11:01:07.391Z,77.80
2018-03-25T11:03:34.870Z,79.20
2018-03-25T11:06:02.353Z,77.70
2018-03-25T11:08:29.809Z,78.00
2018-03-25T11:10:57.273Z,77.70
2018-03-25T11:13:24.738Z,76.20
2018-03-25T11:15:52.222Z,77.20
2018-03-25T11:18:20.497Z,76.60
2018-03-25T11:20:48.739Z,73.00
2018-03-25T11:23:16.209Z,73.00
2018-03-25T11:25:43.686Z,74.40
2018-03-25T11:28:11.154Z,72.20
2018-03-25T11:30:38.640Z,74.40
2018-03-25T11:33:06.872Z,71.40
2018-03-25T11:35:34.352Z,71.50
2018-03-25T11:38:01.819Z,72.80
2018-03-25T11:40:29.302Z,72.30
2018-03-25T11:42:57.534Z,74.10
2018-03-25T11:45:24.993Z,74.10
2018-03-25T11:47:52.473Z,72.50
2018-03-25T11:50:19.955Z,69.10
2018-03-25T11:52:47.450Z,73.10
2018-03-25T11:55:14.915Z,69.90
2018-03-25T11:57:42.398Z,70.50
2018-03-25T12:00:09.882Z,70.80
2018-03-25T12:02:37.374Z,73.80
2018-03-25T12:05:04.848Z,73.20
2018-03-25T12:07:33.091Z,70.40
2018-03-25T12:10:00.564Z,70.40
2018-03-25T12:12:28.824Z,69.80
2018-03-25T12:14:56.335Z,69.00
2018-03-25T12:17:23.778Z,70.10
2018-03-25T12:19:51.274Z,70.50
2018-03-25T12:22:18.762Z,70.90
2018-03-25T12:24:46.250Z,68.30
2018-03-25T12:27:13.735Z,68.00
2018-03-25T12:29:41.966Z,68.50
2018-03-25T12:32:09.466Z,68.00
2018-03-25T12:34:36.931Z,68.70
2018-03-25T12:37:04.406Z,63.60
2018-03-25T12:39:32.698Z,65.30
2018-03-25T12:42:00.126Z,65.20
2018-03-25T12:44:27.589Z,65.60
2018-03-25T12:46:55.065Z,66.20
2018-03-25T12:49:22.521Z,65.70
2018-03-25T12:51:50.023Z,66.30
2018-03-25T12:54:17.495Z,67.60
2018-03-25T12:56:44.967Z,62.80
2018-03-25T12:59:12.424Z,65.50
2018-03-25T13:01:39.968Z,66.10
2018-03-25T13:04:07.373Z,67.30
2018-03-25T13:06:34.846Z,66.70
2018-03-25T13:09:02.347Z,67.30
2018-03-25T13:11:29.799Z,63.60
2018-03-25T13:13:58.056Z,62.40
2018-03-25T13:16:25.532Z,61.70
2018-03-25T13:18:52.998Z,65.80
2018-03-25T13:21:20.482Z,64.10
2018-03-25T13:23:48.740Z,60.80
2018-03-25T13:26:16.215Z,60.80
2018-03-25T13:28:44.456Z,59.10
2018-03-25T13:31:11.921Z,58.90
2018-03-25T13:33:39.398Z,61.90
2018-03-25T13:36:07.827Z,62.70
2018-03-25T13:38:35.299Z,58.10
2018-03-25T13:41:02.774Z,58.80
2018-03-25T13:43:30.247Z,61.30
2018-03-25T13:45:57.714Z,58.40
2018-03-25T13:48:25.200Z,54.60
2018-03-25T13:50:52.673Z,61.90
2018-03-25T13:53:20.914Z,60.20
2018-03-25T13:55:48.391Z,59.40
2018-03-25T13:58:15.869Z,56.20
2018-03-25T14:00:43.358Z,59.90
2018-03-25T14:03:10.855Z,56.80
2018-03-25T14:05:38.340Z,55.50
2018-03-25T14:08:05.809Z,60.00
2018-03-25T14:10:33.271Z,61.10
2018-03-25T14:13:00.815Z,61.60
2018-03-25T14:15:29.003Z,57.20
2018-03-25T14:17:56.505Z,57.10
2018-03-25T14:20:24.753Z,55.00
2018-03-25T14:22:52.227Z,55.20
2018-03-25T14:25:19.705Z,54.70
2018-03-25T14:27:47.945Z,59.60
2018-03-25T14:30:15.419Z,59.60
2018-03-25T14:32:42.889Z,55.90
2018-03-25T14:35:10.365Z,55.80
2018-03-25T14:37:37.833Z,55.80
2018-03-25T14:40:06.152Z,58.60
2018-03-25T14:42:33.619Z,58.60
2018-03-25T14:45:01.113Z,57.00
2018-03-25T14:47:28.575Z,56.70
2018-03-25T14:49:56.057Z,56.30
2018-03-25T14:52:23.519Z,54.10
2018-03-25T14:54:51.016Z,53.00
2018-03-25T14:57:18.480Z,53.20
2018-03-25T14:59:45.952Z,55.30
2018-03-25T15:02:13.427Z,53.90
2018-03-25T15:04:40.909Z,53.40
2018-03-25T15:07:08.383Z,52.80
2018-03-25T15:09:35.863Z,53.40
2018-03-25T15:12:03.335Z,52.90
2018-03-25T15:14:30.798Z,51.90
2018-03-25T15:16:59.035Z,51.80
2018-03-25T15:19:26.515Z,51.70
2018-03-25T15:21:53.989Z,53.20
2018-03-25T15:24:22.433Z,52.40
2018-03-25T15:26:50.678Z,54.80
2018-03-25T15:29:18.156Z,54.80
2018-03-25T15:31:45.648Z,52.70
2018-03-25T15:34:13.121Z,52.20
2018-03-25T15:36:40.582Z,57.10
2018-03-25T15:39:08.060Z,55.90
2018-03-25T15:41:35.528Z,56.00
2018-03-25T15:44:02.985Z,55.80
2018-03-25T15:46:30.476Z,54.70
2018-03-25T15:48:58.719Z,56.50
2018-03-25T15:51:26.194Z,56.50
2018-03-25T15:53:53.657Z,56.90
2018-03-25T15:56:24.253Z,57.40
2018-03-25T15:58:51.733Z,57.10
2018-03-25T16:01:19.210Z,55.90
2018-03-25T16:03:46.681Z,55.50
2018-03-25T16:06:14.165Z,55.30
2018-03-25T16:08:42.401Z,53.70
2018-03-25T16:11:09.882Z,53.70
2018-03-25T16:13:37.353Z,51.80
2018-03-25T16:16:04.860Z,53.40
2018-03-25T16:18:32.327Z,51.00
2018-03-25T16:20:59.810Z,54.90
2018-03-25T16:23:28.041Z,55.70
2018-03-25T16:25:56.281Z,55.20
2018-03-25T16:28:23.754Z,55.00
2018-03-25T16:30:51.237Z,53.40
2018-03-25T16:33:19.480Z,54.20
2018-03-25T16:35:46.951Z,54.10
2018-03-25T16:38:14.425Z,56.50
2018-03-25T16:40:41.909Z,58.00
2018-03-25T16:43:10.149Z,57.60
2018-03-25T16:45:37.636Z,57.50
2018-03-25T16:48:05.122Z,57.70
2018-03-25T16:50:33.376Z,56.40
2018-03-25T16:53:00.846Z,56.30
2018-03-25T16:55:28.340Z,59.10
2018-03-25T16:57:55.807Z,58.70
2018-03-25T17:00:23.280Z,58.00
2018-03-25T17:02:50.765Z,57.90
2018-03-25T17:05:18.231Z,58.40
2018-03-25T17:07:45.708Z,59.10
2018-03-25T17:10:13.185Z,58.80
2018-03-25T17:12:40.656Z,61.90
2018-03-25T17:15:08.126Z,58.80
2018-03-25T17:17:36.394Z,59.40
2018-03-25T17:20:03.854Z,59.30
2018-03-25T17:22:32.119Z,62.20
2018-03-25T17:24:59.579Z,62.10
2018-03-25T17:27:27.048Z,61.50
2018-03-25T17:29:54.514Z,61.10
2018-03-25T17:32:22.004Z,60.80
2018-03-25T17:34:50.243Z,61.50
2018-03-25T17:37:17.740Z,61.50
2018-03-25T17:39:45.982Z,61.00
2018-03-25T17:42:13.451Z,61.00
2018-03-25T17:44:40.916Z,61.20
2018-03-25T17:47:08.392Z,62.60
2018-03-25T17:49:35.856Z,60.40
2018-03-25T17:52:03.333Z,63.30
2018-03-25T17:54:31.566Z,63.20
2018-03-25T17:56:59.034Z,63.10
2018-03-25T17:59:26.501Z,62.40
2018-03-25T18:01:53.980Z,62.20
2018-03-25T18:04:21.450Z,61.40
2018-03-25T18:06:48.951Z,61.80
2018-03-25T18:09:16.404Z,62.10
2018-03-25T18:11:43.885Z,62.20
2018-03-25T18:14:11.361Z,62.40
2018-03-25T18:16:38.825Z,62.30
2018-03-25T18:19:06.476Z,63.00
2018-03-25T18:21:33.935Z,63.10
2018-03-25T18:24:01.417Z,63.60
2018-03-25T18:26:28.886Z,63.40
2018-03-25T18:28:57.123Z,63.80
2018-03-25T18:31:25.350Z,65.30
2018-03-25T18:33:52.817Z,65.30
2018-03-25T18:36:20.303Z,65.20
2018-03-25T18:38:47.778Z,66.80
2018-03-25T18:41:16.007Z,66.50
2018-03-25T18:43:43.481Z,66.50
2018-03-25T18:46:11.723Z,68.30
2018-03-25T18:48:39.189Z,68.30
2018-03-25T18:51:06.639Z,70.30
2018-03-25T18:53:36.782Z,70.80
2018-03-25T18:56:04.242Z,70.80
2018-03-25T18:58:31.736Z,71.00
2018-03-25T19:00:59.197Z,70.00
2018-03-25T19:03:26.669Z,70.20
2018-03-25T19:05:54.126Z,70.30
2018-03-25T19:08:21.593Z,70.20
2018-03-25T19:10:49.049Z,71.70
2018-03-25T19:13:16.525Z,72.00
2018-03-25T19:15:43.987Z,73.50
2018-03-25T19:18:11.458Z,73.00
2018-03-25T19:20:38.931Z,73.70
2018-03-25T19:23:06.402Z,71.90
2018-03-25T19:25:33.873Z,73.30
2018-03-25T19:28:02.107Z,74.30
2018-03-25T19:30:29.609Z,74.30
2018-03-25T19:32:57.845Z,73.60
2018-03-25T19:35:25.339Z,73.60
2018-03-25T19:37:52.825Z,74.00
2018-03-25T19:40:21.063Z,74.00
2018-03-25T19:42:48.535Z,74.00
2018-03-25T19:45:15.998Z,75.10
2018-03-25T19:47:43.448Z,74.80
2018-03-25T19:50:10.947Z,75.70
2018-03-25T19:52:39.181Z,76.30
2018-03-25T19:55:06.673Z,76.30
2018-03-25T19:57:34.160Z,76.10
2018-03-25T20:00:01.659Z,76.20
2018-03-25T20:02:29.148Z,76.70
2018-03-25T20:04:56.627Z,76.50
2018-03-25T20:07:24.104Z,77.10
2018-03-25T20:09:52.347Z,78.20
2018-03-25T20:12:19.811Z,78.20
2018-03-25T20:14:47.317Z,78.60
2018-03-25T20:17:15.551Z,78.90
2018-03-25T20:19:43.020Z,78.90
2018-03-25T20:22:10.507Z,78.60
2018-03-25T20:24:37.989Z,78.90
2018-03-25T20:27:06.240Z,78.40
2018-03-25T20:29:33.740Z,78.40
2018-03-25T20:32:01.244Z,78.30
2018-03-25T20:34:28.720Z,78.70
2018-03-25T20:36:56.235Z,78.60
2018-03-25T20:39:23.657Z,78.70
2018-03-25T20:41:51.147Z,78.40
2018-03-25T20:44:19.392Z,79.60
2018-03-25T20:46:46.859Z,79.60
2018-03-25T20:49:14.324Z,78.90
2018-03-25T20:51:41.785Z,79.40
2018-03-25T20:54:09.255Z,79.40
2018-03-25T20:56:36.720Z,79.00
2018-03-25T20:59:04.985Z,80.40
2018-03-25T21:01:32.452Z,80.40
2018-03-25T21:03:59.916Z,80.80
2018-03-25T21:06:27.386Z,80.60
2018-03-25T21:08:54.857Z,81.40
2018-03-25T21:11:23.101Z,82.90
2018-03-25T21:13:50.582Z,82.90
2018-03-25T21:16:18.088Z,83.00
2018-03-25T21:18:45.562Z,83.20
2018-03-25T21:21:13.048Z,82.40
2018-03-25T21:23:40.517Z,81.80
2018-03-25T21:26:08.003Z,81.40
2018-03-25T21:28:35.474Z,81.40
2018-03-25T21:31:03.745Z,82.80
2018-03-25T21:33:31.218Z,82.00
2018-03-25T21:35:59.473Z,83.20
2018-03-25T21:38:26.933Z,83.20
2018-03-25T21:40:54.422Z,83.30
2018-03-25T21:43:22.664Z,84.20
2018-03-25T21:45:50.128Z,84.00
2018-03-25T21:48:17.605Z,83.80
2018-03-25T21:50:45.078Z,83.40
2018-03-25T21:53:12.576Z,83.40
2018-03-25T21:55:40.048Z,83.70
2018-03-25T21:58:07.524Z,83.40
2018-03-25T22:00:35.002Z,83.50
2018-03-25T22:03:06.091Z,83.60
2018-03-25T22:05:33.557Z,83.90
2018-03-25T22:08:04.256Z,83.30
2018-03-25T22:10:31.728Z,83.70
2018-03-25T22:12:59.218Z,83.70
2018-03-25T22:15:26.699Z,84.30
2018-03-25T22:17:54.954Z,86.10
2018-03-25T22:20:22.469Z,85.40
2018-03-25T22:22:49.911Z,85.00
2018-03-25T22:25:17.379Z,85.40
2018-03-25T22:27:45.622Z,85.30
2018-03-25T22:30:13.096Z,85.20
2018-03-25T22:32:40.568Z,85.30
2018-03-25T22:35:08.031Z,86.00
2018-03-25T22:37:35.492Z,86.80
2018-03-25T22:40:02.998Z,87.20
2018-03-25T22:42:31.211Z,87.40
2018-03-25T22:44:58.689Z,87.30
2018-03-25T22:47:26.168Z,87.60
2018-03-25T22:49:54.414Z,88.50
2018-03-25T22:52:21.877Z,88.10
2018-03-25T22:54:49.368Z,88.60
2018-03-25T22:57:17.615Z,89.50
2018-03-25T22:59:45.101Z,89.50
2018-03-25T23:02:12.579Z,89.60
2018-03-25T23:04:40.823Z,89.90
2018-03-25T23:07:08.301Z,89.90
2018-03-25T23:09:35.779Z,89.70
2018-03-25T23:12:03.243Z,89.20
2018-03-25T23:14:30.722Z,89.50
2018-03-25T23:16:58.203Z,89.80
2018-03-25T23:19:25.673Z,90.10
2018-03-25T23:21:53.150Z,90.40
2018-03-25T23:24:20.625Z,90.40
2018-03-25T23:26:48.108Z,90.40
2018-03-25T23:29:15.582Z,90.50
2018-03-25T23:31:43.818Z,90.40
2018-03-25T23:34:11.296Z,90.40
2018-03-25T23:36:38.771Z,90.60
2018-03-25T23:39:06.264Z,91.00
2018-03-25T23:41:34.504Z,90.80
2018-03-25T23:44:01.979Z,90.80
2018-03-25T23:46:29.429Z,91.10
2018-03-25T23:48:56.913Z,90.90
2018-03-25T23:51:24.383Z,90.90
2018-03-25T23:53:52.626Z,90.70
2018-03-25T23:56:20.091Z,90.60
2018-03-25T23:58:47.562Z,90.70
